sensor_id;sensor_type;location;lat;lon;timestamp;pressure;altitude;pressure_sealevel;temperature;humidity
19023;BME280;35226;48.606;8.858;2022-07-22T00:00:34;96678.81;;;18.15;100.00
19023;BME280;35226;48.606;8.858;2022-07-22T00:02:59;96678.06;;;18.00;100.00
19023;BME280;35226;48.606;8.858;2022-07-22T00:05:28;96678.25;;;17.96;100.00
19023;BME280;35226;48.606;8.858;2022-07-22T00:07:54;96679.78;;;17.97;100.00
19023;BME280;35226;48.606;8.858;2022-07-22T00:10:19;96671.59;;;17.94;100.00
19023;BME280;35226;48.606;8.858;2022-07-22T00:12:45;96674.31;;;17.88;100.00
19023;BME280;35226;48.606;8.858;2022-07-22T00:15:10;96671.50;;;17.88;100.00
19023;BME280;35226;48.606;8.858;2022-07-22T00:17:36;96672.19;;;17.98;100.00
19023;BME280;35226;48.606;8.858;2022-07-22T00:20:04;96670.16;;;17.98;100.00
19023;BME280;35226;48.606;8.858;2022-07-22T00:22:30;96675.75;;;17.98;100.00
19023;BME280;35226;48.606;8.858;2022-07-22T00:24:55;96666.31;;;17.81;100.00
19023;BME280;35226;48.606;8.858;2022-07-22T00:27:21;96679.22;;;17.79;100.00
19023;BME280;35226;48.606;8.858;2022-07-22T00:29:47;96673.94;;;17.81;100.00
19023;BME280;35226;48.606;8.858;2022-07-22T00:32:12;96666.31;;;17.81;100.00
19023;BME280;35226;48.606;8.858;2022-07-22T00:34:38;96674.81;;;17.72;100.00
19023;BME280;35226;48.606;8.858;2022-07-22T00:37:03;96666.91;;;17.70;100.00
19023;BME280;35226;48.606;8.858;2022-07-22T00:39:33;96670.66;;;17.67;100.00
19023;BME280;35226;48.606;8.858;2022-07-22T00:41:59;96670.34;;;17.65;100.00
19023;BME280;35226;48.606;8.858;2022-07-22T00:44:26;96670.06;;;17.63;100.00
19023;BME280;35226;48.606;8.858;2022-07-22T00:46:51;96665.75;;;17.62;100.00
19023;BME280;35226;48.606;8.858;2022-07-22T00:49:17;96664.25;;;17.52;100.00
19023;BME280;35226;48.606;8.858;2022-07-22T00:51:43;96669.94;;;17.58;100.00
19023;BME280;35226;48.606;8.858;2022-07-22T00:54:08;96668.22;;;17.60;100.00
19023;BME280;35226;48.606;8.858;2022-07-22T00:56:34;96668.31;;;17.51;100.00
19023;BME280;35226;48.606;8.858;2022-07-22T00:59:06;96663.38;;;17.46;100.00
19023;BME280;35226;48.606;8.858;2022-07-22T01:01:32;96655.69;;;17.41;100.00
19023;BME280;35226;48.606;8.858;2022-07-22T01:03:58;96650.88;;;17.42;100.00
19023;BME280;35226;48.606;8.858;2022-07-22T01:06:23;96657.88;;;17.37;100.00
19023;BME280;35226;48.606;8.858;2022-07-22T01:08:49;96655.78;;;17.32;100.00
19023;BME280;35226;48.606;8.858;2022-07-22T01:11:18;96653.94;;;17.29;100.00
19023;BME280;35226;48.606;8.858;2022-07-22T01:13:45;96652.38;;;17.28;100.00
19023;BME280;35226;48.606;8.858;2022-07-22T01:16:12;96657.19;;;17.27;100.00
19023;BME280;35226;48.606;8.858;2022-07-22T01:18:42;96647.47;;;17.23;100.00
19023;BME280;35226;48.606;8.858;2022-07-22T01:21:09;96651.03;;;17.23;100.00
19023;BME280;35226;48.606;8.858;2022-07-22T01:23:35;96653.34;;;17.25;100.00
19023;BME280;35226;48.606;8.858;2022-07-22T01:26:01;96649.75;;;17.24;100.00
19023;BME280;35226;48.606;8.858;2022-07-22T01:28:26;96653.06;;;17.23;100.00
19023;BME280;35226;48.606;8.858;2022-07-22T01:30:52;96647.94;;;17.21;100.00
19023;BME280;35226;48.606;8.858;2022-07-22T01:33:19;96644.69;;;17.23;100.00
19023;BME280;35226;48.606;8.858;2022-07-22T01:35:46;96648.72;;;17.22;100.00
19023;BME280;35226;48.606;8.858;2022-07-22T01:38:12;96652.47;;;17.19;100.00
19023;BME280;35226;48.606;8.858;2022-07-22T01:40:38;96646.88;;;17.19;100.00
19023;BME280;35226;48.606;8.858;2022-07-22T01:43:04;96641.00;;;17.17;100.00
19023;BME280;35226;48.606;8.858;2022-07-22T01:45:30;96646.09;;;17.18;100.00
19023;BME280;35226;48.606;8.858;2022-07-22T01:47:55;96642.53;;;17.18;100.00
19023;BME280;35226;48.606;8.858;2022-07-22T01:50:23;96643.91;;;17.22;100.00
19023;BME280;35226;48.606;8.858;2022-07-22T01:52:49;96644.09;;;17.19;100.00
19023;BME280;35226;48.606;8.858;2022-07-22T01:55:15;96640.53;;;17.18;100.00
19023;BME280;35226;48.606;8.858;2022-07-22T01:57:41;96638.50;;;17.19;100.00
19023;BME280;35226;48.606;8.858;2022-07-22T02:00:16;96642.53;;;17.18;100.00
19023;BME280;35226;48.606;8.858;2022-07-22T02:02:43;96644.56;;;17.17;100.00
19023;BME280;35226;48.606;8.858;2022-07-22T02:05:09;96642.25;;;17.16;100.00
19023;BME280;35226;48.606;8.858;2022-07-22T02:07:36;96640.13;;;17.11;100.00
19023;BME280;35226;48.606;8.858;2022-07-22T02:10:04;96642.25;;;17.16;100.00
19023;BME280;35226;48.606;8.858;2022-07-22T02:12:31;96643.69;;;17.11;100.00
19023;BME280;35226;48.606;8.858;2022-07-22T02:14:57;96638.47;;;17.04;100.00
19023;BME280;35226;48.606;8.858;2022-07-22T02:17:22;96637.91;;;17.00;100.00
19023;BME280;35226;48.606;8.858;2022-07-22T02:19:48;96634.97;;;16.94;100.00
19023;BME280;35226;48.606;8.858;2022-07-22T02:22:15;96630.06;;;16.89;100.00
19023;BME280;35226;48.606;8.858;2022-07-22T02:24:40;96627.19;;;16.84;100.00
19023;BME280;35226;48.606;8.858;2022-07-22T02:27:06;96634.47;;;16.81;100.00
19023;BME280;35226;48.606;8.858;2022-07-22T02:29:32;96630.44;;;16.82;100.00
19023;BME280;35226;48.606;8.858;2022-07-22T02:31:59;96635.13;;;16.76;100.00
19023;BME280;35226;48.606;8.858;2022-07-22T02:34:24;96621.94;;;16.77;100.00
19023;BME280;35226;48.606;8.858;2022-07-22T02:36:51;96621.00;;;16.80;100.00
19023;BME280;35226;48.606;8.858;2022-07-22T02:39:17;96620.53;;;16.81;100.00
19023;BME280;35226;48.606;8.858;2022-07-22T02:41:43;96619.75;;;16.81;100.00
19023;BME280;35226;48.606;8.858;2022-07-22T02:44:09;96627.34;;;16.80;100.00
19023;BME280;35226;48.606;8.858;2022-07-22T02:46:35;96623.97;;;16.76;100.00
19023;BME280;35226;48.606;8.858;2022-07-22T02:49:10;96625.72;;;16.74;100.00
19023;BME280;35226;48.606;8.858;2022-07-22T02:51:36;96621.84;;;16.71;100.00
19023;BME280;35226;48.606;8.858;2022-07-22T02:54:02;96622.41;;;16.75;100.00
19023;BME280;35226;48.606;8.858;2022-07-22T02:56:28;96622.63;;;16.72;100.00
19023;BME280;35226;48.606;8.858;2022-07-22T02:58:53;96623.38;;;16.72;100.00
19023;BME280;35226;48.606;8.858;2022-07-22T03:01:21;96615.78;;;16.73;100.00
19023;BME280;35226;48.606;8.858;2022-07-22T03:03:53;96620.28;;;16.70;100.00
19023;BME280;35226;48.606;8.858;2022-07-22T03:06:20;96624.63;;;16.71;100.00
19023;BME280;35226;48.606;8.858;2022-07-22T03:08:57;96633.16;;;16.68;100.00
19023;BME280;35226;48.606;8.858;2022-07-22T03:11:24;96622.22;;;16.64;100.00
19023;BME280;35226;48.606;8.858;2022-07-22T03:13:50;96622.34;;;16.60;100.00
19023;BME280;35226;48.606;8.858;2022-07-22T03:16:15;96625.78;;;16.55;100.00
19023;BME280;35226;48.606;8.858;2022-07-22T03:18:41;96626.44;;;16.50;100.00
19023;BME280;35226;48.606;8.858;2022-07-22T03:21:06;96625.66;;;16.50;100.00
19023;BME280;35226;48.606;8.858;2022-07-22T03:23:32;96620.09;;;16.50;100.00
19023;BME280;35226;48.606;8.858;2022-07-22T03:25:58;96621.81;;;16.47;100.00
19023;BME280;35226;48.606;8.858;2022-07-22T03:28:23;96619.03;;;16.47;100.00
19023;BME280;35226;48.606;8.858;2022-07-22T03:30:51;96622.47;;;16.42;100.00
19023;BME280;35226;48.606;8.858;2022-07-22T03:33:17;96622.47;;;16.42;100.00
19023;BME280;35226;48.606;8.858;2022-07-22T03:35:43;96622.63;;;16.39;100.00
19023;BME280;35226;48.606;8.858;2022-07-22T03:38:09;96623.31;;;16.34;100.00
19023;BME280;35226;48.606;8.858;2022-07-22T03:40:36;96635.56;;;16.27;100.00
19023;BME280;35226;48.606;8.858;2022-07-22T03:43:03;96633.75;;;16.24;100.00
19023;BME280;35226;48.606;8.858;2022-07-22T03:45:30;96627.38;;;16.23;100.00
19023;BME280;35226;48.606;8.858;2022-07-22T03:47:56;96629.41;;;16.23;100.00
19023;BME280;35226;48.606;8.858;2022-07-22T03:50:25;96629.72;;;16.16;100.00
19023;BME280;35226;48.606;8.858;2022-07-22T03:52:51;96624.16;;;16.16;100.00
19023;BME280;35226;48.606;8.858;2022-07-22T03:55:16;96628.78;;;16.19;100.00
19023;BME280;35226;48.606;8.858;2022-07-22T03:57:44;96631.16;;;16.11;100.00
19023;BME280;35226;48.606;8.858;2022-07-22T04:00:20;96625.47;;;16.06;100.00
19023;BME280;35226;48.606;8.858;2022-07-22T04:02:46;96623.31;;;16.01;100.00
19023;BME280;35226;48.606;8.858;2022-07-22T04:05:20;96630.75;;;16.04;100.00
19023;BME280;35226;48.606;8.858;2022-07-22T04:07:46;96638.19;;;15.98;100.00
19023;BME280;35226;48.606;8.858;2022-07-22T04:10:12;96633.56;;;15.95;100.00
19023;BME280;35226;48.606;8.858;2022-07-22T04:12:42;96634.03;;;15.93;100.00
19023;BME280;35226;48.606;8.858;2022-07-22T04:15:15;96636.81;;;15.93;100.00
19023;BME280;35226;48.606;8.858;2022-07-22T04:17:41;96638.06;;;15.92;100.00
19023;BME280;35226;48.606;8.858;2022-07-22T04:20:07;96627.69;;;15.93;100.00
19023;BME280;35226;48.606;8.858;2022-07-22T04:22:48;96621.50;;;15.88;100.00
19023;BME280;35226;48.606;8.858;2022-07-22T04:25:14;96623.81;;;15.90;100.00
19023;BME280;35226;48.606;8.858;2022-07-22T04:27:40;96618.25;;;15.90;100.00
19023;BME280;35226;48.606;8.858;2022-07-22T04:30:06;96623.81;;;15.90;100.00
19023;BME280;35226;48.606;8.858;2022-07-22T04:32:33;96617.63;;;15.95;100.00
19023;BME280;35226;48.606;8.858;2022-07-22T04:34:59;96624.91;;;15.93;100.00
19023;BME280;35226;48.606;8.858;2022-07-22T04:37:25;96621.66;;;15.94;100.00
19023;BME280;35226;48.606;8.858;2022-07-22T04:39:51;96620.69;;;15.97;100.00
19023;BME280;35226;48.606;8.858;2022-07-22T04:42:16;96630.31;;;15.96;100.00
19023;BME280;35226;48.606;8.858;2022-07-22T04:44:44;96619.91;;;15.97;100.00
19023;BME280;35226;48.606;8.858;2022-07-22T04:47:11;96627.53;;;15.96;100.00
19023;BME280;35226;48.606;8.858;2022-07-22T04:49:37;96620.53;;;16.01;100.00
19023;BME280;35226;48.606;8.858;2022-07-22T04:52:06;96624.09;;;16.01;100.00
19023;BME280;35226;48.606;8.858;2022-07-22T04:54:42;96622.84;;;16.02;100.00
19023;BME280;35226;48.606;8.858;2022-07-22T04:57:08;96616.44;;;16.11;100.00
19023;BME280;35226;48.606;8.858;2022-07-22T04:59:33;96621.66;;;16.18;100.00
19023;BME280;35226;48.606;8.858;2022-07-22T05:01:59;96617.63;;;16.19;100.00
19023;BME280;35226;48.606;8.858;2022-07-22T05:04:25;96611.13;;;16.22;100.00
19023;BME280;35226;48.606;8.858;2022-07-22T05:06:51;96611.13;;;16.22;100.00
19023;BME280;35226;48.606;8.858;2022-07-22T05:09:17;96612.69;;;16.23;100.00
19023;BME280;35226;48.606;8.858;2022-07-22T05:11:42;96612.47;;;16.26;100.00
19023;BME280;35226;48.606;8.858;2022-07-22T05:14:08;96608.75;;;16.29;100.00
19023;BME280;35226;48.606;8.858;2022-07-22T05:16:38;96610.31;;;16.31;100.00
19023;BME280;35226;48.606;8.858;2022-07-22T05:19:05;96603.31;;;16.35;100.00
19023;BME280;35226;48.606;8.858;2022-07-22T05:21:32;96608.69;;;16.39;100.00
19023;BME280;35226;48.606;8.858;2022-07-22T05:23:58;96604.19;;;16.41;100.00
19023;BME280;35226;48.606;8.858;2022-07-22T05:26:24;96613.13;;;16.45;100.00
19023;BME280;35226;48.606;8.858;2022-07-22T05:28:50;96610.47;;;16.51;100.00
19023;BME280;35226;48.606;8.858;2022-07-22T05:31:16;96601.44;;;16.56;100.00
19023;BME280;35226;48.606;8.858;2022-07-22T05:33:42;96603.16;;;16.62;100.00
19023;BME280;35226;48.606;8.858;2022-07-22T05:36:26;96613.47;;;16.71;100.00
19023;BME280;35226;48.606;8.858;2022-07-22T05:38:54;96605.09;;;16.71;100.00
19023;BME280;35226;48.606;8.858;2022-07-22T05:41:19;96604.16;;;16.74;100.00
19023;BME280;35226;48.606;8.858;2022-07-22T05:43:45;96607.81;;;16.80;100.00
19023;BME280;35226;48.606;8.858;2022-07-22T05:46:11;96603.56;;;16.85;100.00
19023;BME280;35226;48.606;8.858;2022-07-22T05:48:37;96604.56;;;16.96;100.00
19023;BME280;35226;48.606;8.858;2022-07-22T05:51:03;96603.44;;;17.03;100.00
19023;BME280;35226;48.606;8.858;2022-07-22T05:53:31;96602.00;;;17.08;100.00
19023;BME280;35226;48.606;8.858;2022-07-22T05:55:57;96600.84;;;17.14;100.00
19023;BME280;35226;48.606;8.858;2022-07-22T05:58:26;96599.41;;;17.19;100.00
19023;BME280;35226;48.606;8.858;2022-07-22T06:00:51;96598.56;;;17.27;100.00
19023;BME280;35226;48.606;8.858;2022-07-22T06:03:18;96606.28;;;17.32;100.00
19023;BME280;35226;48.606;8.858;2022-07-22T06:05:43;96602.50;;;17.35;100.00
19023;BME280;35226;48.606;8.858;2022-07-22T06:08:13;96604.34;;;17.38;100.00
19023;BME280;35226;48.606;8.858;2022-07-22T06:10:42;96611.75;;;17.42;100.00
19023;BME280;35226;48.606;8.858;2022-07-22T06:13:08;96609.53;;;17.46;100.00
19023;BME280;35226;48.606;8.858;2022-07-22T06:15:33;96613.78;;;17.56;100.00
19023;BME280;35226;48.606;8.858;2022-07-22T06:18:00;96606.38;;;17.67;100.00
19023;BME280;35226;48.606;8.858;2022-07-22T06:20:26;96601.56;;;17.68;100.00
19023;BME280;35226;48.606;8.858;2022-07-22T06:22:52;96609.53;;;17.75;100.00
19023;BME280;35226;48.606;8.858;2022-07-22T06:25:21;96603.47;;;17.77;100.00
19023;BME280;35226;48.606;8.858;2022-07-22T06:27:47;96607.13;;;17.83;100.00
19023;BME280;35226;48.606;8.858;2022-07-22T06:30:13;96609.25;;;17.88;100.00
19023;BME280;35226;48.606;8.858;2022-07-22T06:32:39;96611.09;;;17.91;100.00
19023;BME280;35226;48.606;8.858;2022-07-22T06:35:07;96607.09;;;17.97;100.00
19023;BME280;35226;48.606;8.858;2022-07-22T06:37:33;96609.97;;;18.03;100.00
19023;BME280;35226;48.606;8.858;2022-07-22T06:39:58;96606.03;;;18.09;100.00
19023;BME280;35226;48.606;8.858;2022-07-22T06:42:51;96599.19;;;18.10;100.00
19023;BME280;35226;48.606;8.858;2022-07-22T06:45:37;96601.56;;;18.18;100.00
19023;BME280;35226;48.606;8.858;2022-07-22T06:48:09;96601.50;;;18.32;100.00
19023;BME280;35226;48.606;8.858;2022-07-22T06:50:35;96609.03;;;18.41;100.00
19023;BME280;35226;48.606;8.858;2022-07-22T06:53:06;96611.81;;;18.41;100.00
19023;BME280;35226;48.606;8.858;2022-07-22T06:55:32;96608.78;;;18.44;100.00
19023;BME280;35226;48.606;8.858;2022-07-22T06:58:04;96605.03;;;18.47;100.00
19023;BME280;35226;48.606;8.858;2022-07-22T07:00:29;96604.59;;;18.55;100.00
19023;BME280;35226;48.606;8.858;2022-07-22T07:03:23;96596.59;;;18.62;100.00
19023;BME280;35226;48.606;8.858;2022-07-22T07:05:54;96598.97;;;18.69;100.00
19023;BME280;35226;48.606;8.858;2022-07-22T07:08:20;96597.22;;;18.72;100.00
19023;BME280;35226;48.606;8.858;2022-07-22T07:10:46;96591.69;;;18.77;100.00
19023;BME280;35226;48.606;8.858;2022-07-22T07:13:13;96588.47;;;18.84;100.00
19023;BME280;35226;48.606;8.858;2022-07-22T07:15:43;96592.09;;;18.91;100.00
19023;BME280;35226;48.606;8.858;2022-07-22T07:18:09;96589.38;;;18.96;100.00
19023;BME280;35226;48.606;8.858;2022-07-22T07:20:35;96577.72;;;19.03;100.00
19023;BME280;35226;48.606;8.858;2022-07-22T07:23:03;96576.50;;;19.10;100.00
19023;BME280;35226;48.606;8.858;2022-07-22T07:25:31;96570.50;;;19.17;100.00
19023;BME280;35226;48.606;8.858;2022-07-22T07:27:57;96576.13;;;19.22;100.00
19023;BME280;35226;48.606;8.858;2022-07-22T07:30:41;96573.13;;;19.26;100.00
19023;BME280;35226;48.606;8.858;2022-07-22T07:33:07;96573.44;;;19.34;100.00
19023;BME280;35226;48.606;8.858;2022-07-22T07:35:33;96570.44;;;19.37;100.00
19023;BME280;35226;48.606;8.858;2022-07-22T07:37:59;96563.59;;;19.44;100.00
19023;BME280;35226;48.606;8.858;2022-07-22T07:40:24;96571.31;;;19.49;100.00
19023;BME280;35226;48.606;8.858;2022-07-22T07:42:50;96572.63;;;19.53;100.00
19023;BME280;35226;48.606;8.858;2022-07-22T07:45:17;96574.97;;;19.61;100.00
19023;BME280;35226;48.606;8.858;2022-07-22T07:47:43;96568.78;;;19.82;100.00
19023;BME280;35226;48.606;8.858;2022-07-22T07:50:10;96565.22;;;19.82;100.00
19023;BME280;35226;48.606;8.858;2022-07-22T07:52:42;96565.78;;;19.91;100.00
19023;BME280;35226;48.606;8.858;2022-07-22T07:55:09;96565.09;;;20.02;100.00
19023;BME280;35226;48.606;8.858;2022-07-22T07:57:36;96565.66;;;20.06;100.00
19023;BME280;35226;48.606;8.858;2022-07-22T08:00:08;96570.59;;;20.22;100.00
19023;BME280;35226;48.606;8.858;2022-07-22T08:02:39;96566.50;;;20.23;100.00
19023;BME280;35226;48.606;8.858;2022-07-22T08:05:08;96567.56;;;20.26;100.00
19023;BME280;35226;48.606;8.858;2022-07-22T08:07:35;96569.97;;;20.44;100.00
19023;BME280;35226;48.606;8.858;2022-07-22T08:10:03;96563.56;;;20.38;100.00
19023;BME280;35226;48.606;8.858;2022-07-22T08:12:48;96561.31;;;20.48;100.00
19023;BME280;35226;48.606;8.858;2022-07-22T08:15:40;96552.19;;;20.64;100.00
19023;BME280;35226;48.606;8.858;2022-07-22T08:18:10;96552.78;;;20.85;100.00
19023;BME280;35226;48.606;8.858;2022-07-22T08:20:35;96554.34;;;20.91;100.00
19023;BME280;35226;48.606;8.858;2022-07-22T08:23:03;96550.50;;;20.89;100.00
19023;BME280;35226;48.606;8.858;2022-07-22T08:25:31;96554.38;;;21.02;100.00
19023;BME280;35226;48.606;8.858;2022-07-22T08:27:57;96542.38;;;21.02;100.00
19023;BME280;35226;48.606;8.858;2022-07-22T08:30:22;96540.38;;;21.36;100.00
19023;BME280;35226;48.606;8.858;2022-07-22T08:32:49;96551.41;;;21.51;100.00
19023;BME280;35226;48.606;8.858;2022-07-22T08:35:16;96543.75;;;21.62;100.00
19023;BME280;35226;48.606;8.858;2022-07-22T08:37:42;96533.50;;;21.76;100.00
19023;BME280;35226;48.606;8.858;2022-07-22T08:40:08;96536.06;;;21.63;100.00
19023;BME280;35226;48.606;8.858;2022-07-22T08:42:43;96535.78;;;21.66;100.00
19023;BME280;35226;48.606;8.858;2022-07-22T08:45:09;96532.22;;;21.66;100.00
19023;BME280;35226;48.606;8.858;2022-07-22T08:47:35;96528.13;;;21.78;100.00
19023;BME280;35226;48.606;8.858;2022-07-22T08:50:25;96523.78;;;21.88;100.00
19023;BME280;35226;48.606;8.858;2022-07-22T08:52:56;96525.81;;;21.99;100.00
19023;BME280;35226;48.606;8.858;2022-07-22T08:55:23;96524.03;;;22.01;100.00
19023;BME280;35226;48.606;8.858;2022-07-22T08:57:49;96528.09;;;22.17;100.00
19023;BME280;35226;48.606;8.858;2022-07-22T09:00:18;96532.94;;;22.22;100.00
19023;BME280;35226;48.606;8.858;2022-07-22T09:02:44;96532.44;;;22.18;100.00
19023;BME280;35226;48.606;8.858;2022-07-22T09:05:13;96537.78;;;22.33;100.00
19023;BME280;35226;48.606;8.858;2022-07-22T09:07:42;96523.91;;;22.51;100.00
19023;BME280;35226;48.606;8.858;2022-07-22T09:10:32;96522.34;;;23.08;100.00
19023;BME280;35226;48.606;8.858;2022-07-22T09:13:16;96516.25;;;22.99;100.00
19023;BME280;35226;48.606;8.858;2022-07-22T09:15:52;96518.06;;;22.96;100.00
19023;BME280;35226;48.606;8.858;2022-07-22T09:18:52;96510.88;;;22.95;100.00
19023;BME280;35226;48.606;8.858;2022-07-22T09:21:21;96520.31;;;23.03;100.00
19023;BME280;35226;48.606;8.858;2022-07-22T09:24:07;96515.50;;;22.98;100.00
19023;BME280;35226;48.606;8.858;2022-07-22T09:26:39;96514.47;;;23.01;100.00
19023;BME280;35226;48.606;8.858;2022-07-22T09:29:23;96513.91;;;23.08;100.00
19023;BME280;35226;48.606;8.858;2022-07-22T09:32:22;96505.06;;;23.29;100.00
19023;BME280;35226;48.606;8.858;2022-07-22T09:35:01;96504.91;;;23.45;100.00
19023;BME280;35226;48.606;8.858;2022-07-22T09:37:29;96498.84;;;23.95;100.00
19023;BME280;35226;48.606;8.858;2022-07-22T09:40:11;96501.03;;;24.08;100.00
19023;BME280;35226;48.606;8.858;2022-07-22T09:42:54;96496.28;;;24.22;100.00
19023;BME280;35226;48.606;8.858;2022-07-22T09:45:21;96501.16;;;24.21;100.00
19023;BME280;35226;48.606;8.858;2022-07-22T09:47:48;96495.03;;;24.17;100.00
19023;BME280;35226;48.606;8.858;2022-07-22T09:50:43;96496.16;;;24.33;100.00
19023;BME280;35226;48.606;8.858;2022-07-22T09:53:39;96491.31;;;24.52;100.00
19023;BME280;35226;48.606;8.858;2022-07-22T09:56:08;96493.47;;;24.65;100.00
19023;BME280;35226;48.606;8.858;2022-07-22T09:58:35;96490.66;;;24.84;100.00
19023;BME280;35226;48.606;8.858;2022-07-22T10:01:06;96489.44;;;25.17;100.00
19023;BME280;35226;48.606;8.858;2022-07-22T10:03:35;96484.91;;;25.08;100.00
19023;BME280;35226;48.606;8.858;2022-07-22T10:06:04;96477.81;;;25.01;100.00
19023;BME280;35226;48.606;8.858;2022-07-22T10:08:32;96468.13;;;25.16;100.00
19023;BME280;35226;48.606;8.858;2022-07-22T10:11:04;96470.31;;;25.23;100.00
19023;BME280;35226;48.606;8.858;2022-07-22T10:13:31;96454.69;;;25.67;100.00
19023;BME280;35226;48.606;8.858;2022-07-22T10:15:59;96453.38;;;25.68;97.19
19023;BME280;35226;48.606;8.858;2022-07-22T10:18:27;96449.94;;;25.88;98.63
19023;BME280;35226;48.606;8.858;2022-07-22T10:21:15;96448.75;;;25.97;96.86
19023;BME280;35226;48.606;8.858;2022-07-22T10:24:23;96456.06;;;26.18;86.91
19023;BME280;35226;48.606;8.858;2022-07-22T10:26:57;96453.25;;;26.32;87.83
19023;BME280;35226;48.606;8.858;2022-07-22T10:31:49;96443.41;;;26.59;88.92
19023;BME280;35226;48.606;8.858;2022-07-22T10:34:15;96434.75;;;26.65;93.60
19023;BME280;35226;48.606;8.858;2022-07-22T10:36:40;96433.34;;;26.71;75.76
19023;BME280;35226;48.606;8.858;2022-07-22T10:39:12;96442.69;;;26.93;85.77
19023;BME280;35226;48.606;8.858;2022-07-22T10:41:44;96444.13;;;27.20;79.32
19023;BME280;35226;48.606;8.858;2022-07-22T10:44:10;96438.94;;;27.11;83.31
19023;BME280;35226;48.606;8.858;2022-07-22T10:47:03;96430.34;;;27.45;72.62
19023;BME280;35226;48.606;8.858;2022-07-22T10:49:28;96428.78;;;27.57;72.77
19023;BME280;35226;48.606;8.858;2022-07-22T10:54:32;96433.53;;;28.11;72.96
19023;BME280;35226;48.606;8.858;2022-07-22T10:56:59;96436.19;;;28.38;65.93
19023;BME280;35226;48.606;8.858;2022-07-22T10:59:25;96437.66;;;28.31;57.85
19023;BME280;35226;48.606;8.858;2022-07-22T11:01:52;96440.88;;;28.27;60.13
19023;BME280;35226;48.606;8.858;2022-07-22T11:04:21;96428.88;;;28.57;59.07
19023;BME280;35226;48.606;8.858;2022-07-22T11:06:56;96436.59;;;28.85;57.85
19023;BME280;35226;48.606;8.858;2022-07-22T11:09:30;96427.81;;;28.68;62.60
19023;BME280;35226;48.606;8.858;2022-07-22T11:11:57;96417.78;;;28.75;65.50
19023;BME280;35226;48.606;8.858;2022-07-22T11:14:27;96420.09;;;28.84;61.94
19023;BME280;35226;48.606;8.858;2022-07-22T11:16:58;96425.88;;;29.22;62.92
19023;BME280;35226;48.606;8.858;2022-07-22T11:19:28;96414.75;;;29.62;59.38
19023;BME280;35226;48.606;8.858;2022-07-22T11:21:57;96413.81;;;29.74;55.48
19023;BME280;35226;48.606;8.858;2022-07-22T11:24:24;96419.31;;;30.03;53.87
19023;BME280;35226;48.606;8.858;2022-07-22T11:26:52;96416.25;;;30.16;50.25
19023;BME280;35226;48.606;8.858;2022-07-22T11:29:38;96406.09;;;30.45;48.91
19023;BME280;35226;48.606;8.858;2022-07-22T11:32:07;96405.19;;;30.83;49.86
19023;BME280;35226;48.606;8.858;2022-07-22T11:34:40;96399.69;;;30.85;47.60
19023;BME280;35226;48.606;8.858;2022-07-22T11:37:08;96397.38;;;30.36;49.20
19023;BME280;35226;48.606;8.858;2022-07-22T11:39:34;96391.78;;;30.61;48.17
19023;BME280;35226;48.606;8.858;2022-07-22T11:42:00;96382.84;;;30.64;50.45
19023;BME280;35226;48.606;8.858;2022-07-22T11:44:28;96381.63;;;31.15;49.51
19023;BME280;35226;48.606;8.858;2022-07-22T11:46:55;96372.19;;;31.54;48.36
19023;BME280;35226;48.606;8.858;2022-07-22T11:49:25;96377.34;;;31.31;48.68
19023;BME280;35226;48.606;8.858;2022-07-22T11:51:51;96362.63;;;31.35;47.45
19023;BME280;35226;48.606;8.858;2022-07-22T11:54:17;96360.94;;;31.56;44.09
19023;BME280;35226;48.606;8.858;2022-07-22T11:56:43;96357.16;;;31.54;45.66
19023;BME280;35226;48.606;8.858;2022-07-22T11:59:12;96352.16;;;31.62;42.62
19023;BME280;35226;48.606;8.858;2022-07-22T12:01:39;96356.41;;;31.95;44.28
19023;BME280;35226;48.606;8.858;2022-07-22T12:04:14;96350.28;;;32.16;40.79
19023;BME280;35226;48.606;8.858;2022-07-22T12:06:43;96346.09;;;31.83;43.66
19023;BME280;35226;48.606;8.858;2022-07-22T12:09:09;96348.25;;;32.44;42.05
19023;BME280;35226;48.606;8.858;2022-07-22T12:11:38;96348.91;;;32.69;39.75
19023;BME280;35226;48.606;8.858;2022-07-22T12:14:09;96350.72;;;32.47;41.38
19023;BME280;35226;48.606;8.858;2022-07-22T12:16:36;96341.06;;;32.25;42.50
19023;BME280;35226;48.606;8.858;2022-07-22T12:19:08;96347.25;;;32.93;38.28
19023;BME280;35226;48.606;8.858;2022-07-22T12:21:36;96338.41;;;32.98;37.25
19023;BME280;35226;48.606;8.858;2022-07-22T12:24:07;96333.78;;;33.13;38.98
19023;BME280;35226;48.606;8.858;2022-07-22T12:26:43;96329.47;;;33.58;38.56
19023;BME280;35226;48.606;8.858;2022-07-22T12:29:16;96336.53;;;33.47;38.72
19023;BME280;35226;48.606;8.858;2022-07-22T12:31:44;96338.94;;;33.51;40.14
19023;BME280;35226;48.606;8.858;2022-07-22T12:34:09;96332.75;;;33.44;38.84
19023;BME280;35226;48.606;8.858;2022-07-22T12:36:35;96338.00;;;33.12;39.94
19023;BME280;35226;48.606;8.858;2022-07-22T12:39:18;96332.31;;;33.48;40.45
19023;BME280;35226;48.606;8.858;2022-07-22T12:41:46;96323.09;;;34.15;36.21
19023;BME280;35226;48.606;8.858;2022-07-22T12:44:21;96321.25;;;34.00;35.58
19023;BME280;35226;48.606;8.858;2022-07-22T12:46:49;96322.03;;;34.39;38.47
19023;BME280;35226;48.606;8.858;2022-07-22T12:49:17;96322.66;;;34.57;36.45
19023;BME280;35226;48.606;8.858;2022-07-22T12:54:33;96306.19;;;35.08;35.32
19023;BME280;35226;48.606;8.858;2022-07-22T12:56:59;96311.44;;;35.21;33.39
19023;BME280;35226;48.606;8.858;2022-07-22T12:59:25;96300.88;;;35.23;34.97
19023;BME280;35226;48.606;8.858;2022-07-22T13:01:51;96304.22;;;35.10;32.55
19023;BME280;35226;48.606;8.858;2022-07-22T13:04:16;96301.44;;;35.32;33.65
19023;BME280;35226;48.606;8.858;2022-07-22T13:06:42;96301.59;;;35.34;32.81
19023;BME280;35226;48.606;8.858;2022-07-22T13:09:07;96303.88;;;35.87;32.32